createdAt,value
2022-12-17T00:02:03.391Z,99250.88
2022-12-17T00:04:48.525Z,99299.38
2022-12-17T00:07:33.500Z,99284.25
2022-12-17T00:10:20.241Z,99153.28
2022-12-17T00:13:05.347Z,99127.41
2022-12-17T00:15:50.377Z,99195.78
2022-12-17T00:18:35.814Z,99235.19
2022-12-17T00:21:20.923Z,99283.66
2022-12-17T00:24:05.986Z,99332.97
2022-12-17T00:26:52.579Z,99376.91
2022-12-17T00:29:37.803Z,99386.88
2022-12-17T00:32:23.109Z,99352.06
2022-12-17T00:35:08.357Z,99327.81
2022-12-17T00:37:53.490Z,99372.59
2022-12-17T00:40:38.446Z,99375.03
2022-12-17T00:43:25.450Z,99342.94
2022-12-17T00:46:10.972Z,99347.28
2022-12-17T00:48:56.387Z,99314.13
2022-12-17T00:51:41.317Z,99318.69
2022-12-17T00:54:26.145Z,99311.44
2022-12-17T00:57:11.061Z,99304.41
2022-12-17T00:59:57.683Z,99303.56
2022-12-17T01:02:43.161Z,99324.56
2022-12-17T01:05:28.422Z,99328.28
2022-12-17T01:08:13.311Z,99344.22
2022-12-17T01:10:58.403Z,99305.09
2022-12-17T01:13:44.951Z,99280.84
2022-12-17T01:16:31.974Z,99273.84
2022-12-17T01:19:31.586Z,99279.22
2022-12-17T01:22:28.071Z,99308.00
2022-12-17T01:25:13.286Z,99344.91
2022-12-17T01:27:58.468Z,99295.41
2022-12-17T01:30:43.802Z,99275.69
2022-12-17T01:33:30.296Z,99261.41
2022-12-17T01:36:15.506Z,99252.72
2022-12-17T01:39:00.623Z,99275.94
2022-12-17T01:41:51.177Z,99307.47
2022-12-17T01:45:03.003Z,99314.69
2022-12-17T01:47:49.001Z,99331.44
2022-12-17T01:50:35.694Z,99343.03
2022-12-17T01:53:21.615Z,99376.22
2022-12-17T01:56:06.686Z,99439.81
2022-12-17T01:59:00.290Z,99465.69
2022-12-17T02:01:45.629Z,99454.91
2022-12-17T02:04:31.011Z,99434.16
2022-12-17T02:07:21.193Z,99437.94
2022-12-17T02:10:08.533Z,99472.13
2022-12-17T02:12:56.052Z,99473.19
2022-12-17T02:15:59.716Z,99460.75
2022-12-17T02:18:48.587Z,99481.50
2022-12-17T02:21:33.721Z,99476.13
2022-12-17T02:24:22.035Z,99477.19
2022-12-17T02:27:09.325Z,99425.16
2022-12-17T02:29:55.292Z,99435.09
2022-12-17T02:32:41.888Z,99515.09
2022-12-17T02:35:34.592Z,99516.75
2022-12-17T02:38:19.722Z,99455.03
2022-12-17T02:41:05.327Z,99313.28
2022-12-17T02:43:51.530Z,99175.34
2022-12-17T02:46:37.487Z,99023.91
2022-12-17T02:49:22.946Z,99028.50
2022-12-17T02:52:10.320Z,99020.41
2022-12-17T02:54:55.369Z,99023.09
2022-12-17T02:57:43.751Z,99030.13
2022-12-17T03:00:31.697Z,99029.03
2022-12-17T03:03:16.603Z,99021.56
2022-12-17T03:06:01.774Z,99043.09
2022-12-17T03:08:47.115Z,99077.06
2022-12-17T03:11:32.161Z,99097.56
2022-12-17T03:14:19.017Z,99131.75
2022-12-17T03:17:05.767Z,99156.81
2022-12-17T03:19:56.320Z,99181.88
2022-12-17T03:22:41.486Z,99219.00
2022-12-17T03:25:27.198Z,99242.44
2022-12-17T03:28:12.712Z,99287.63
2022-12-17T03:31:00.067Z,99420.22
2022-12-17T03:33:49.869Z,99456.91
2022-12-17T03:36:35.083Z,99483.00
2022-12-17T03:39:28.388Z,99501.03
2022-12-17T03:42:13.574Z,99513.69
2022-12-17T03:44:58.837Z,99531.72
2022-12-17T03:47:46.090Z,99531.72
2022-12-17T03:50:32.561Z,99547.06
2022-12-17T03:53:18.157Z,99550.81
2022-12-17T03:56:03.305Z,99553.28
2022-12-17T03:58:48.679Z,99558.66
2022-12-17T04:01:34.011Z,99552.69
2022-12-17T04:04:19.132Z,99544.59
2022-12-17T04:07:05.462Z,99548.34
2022-12-17T04:09:50.497Z,99577.75
2022-12-17T04:12:35.391Z,99583.94
2022-12-17T04:15:20.398Z,99581.84
2022-12-17T04:18:05.534Z,99588.06
2022-12-17T04:20:50.478Z,99607.78
2022-12-17T04:23:39.453Z,99605.06
2022-12-17T04:26:24.566Z,99581.66
2022-12-17T04:29:09.838Z,99533.97
2022-12-17T04:31:54.783Z,99481.38
2022-12-17T04:34:39.664Z,99387.06
2022-12-17T04:37:24.626Z,99235.03
2022-12-17T04:40:11.356Z,99165.25
2022-12-17T04:42:56.253Z,99239.63
2022-12-17T04:45:59.629Z,99324.19
2022-12-17T04:48:44.704Z,99414.69
2022-12-17T04:51:31.146Z,99459.22
2022-12-17T04:54:16.615Z,99495.28
2022-12-17T04:57:03.095Z,99512.28
2022-12-17T04:59:49.634Z,99512.50
2022-12-17T05:02:38.214Z,99531.34
2022-12-17T05:05:26.394Z,99530.53
2022-12-17T05:08:23.278Z,99538.59
2022-12-17T05:11:08.361Z,99542.38
2022-12-17T05:13:54.798Z,99569.06
2022-12-17T05:16:39.993Z,99595.19
2022-12-17T05:19:26.341Z,99606.78
2022-12-17T05:22:11.613Z,99618.38
2022-12-17T05:24:56.891Z,99620.84
2022-12-17T05:27:41.795Z,99635.97
2022-12-17T05:30:28.781Z,99655.66
2022-12-17T05:33:17.931Z,99677.22
2022-12-17T05:36:03.254Z,99678.03
2022-12-17T05:38:48.345Z,99677.22
2022-12-17T05:41:33.478Z,99688.81
2022-12-17T05:44:18.693Z,99687.16
2022-12-17T05:47:05.195Z,99690.88
2022-12-17T05:49:50.049Z,99697.09
2022-12-17T05:52:34.832Z,99706.22
2022-12-17T05:55:19.775Z,99718.06
2022-12-17T05:58:04.681Z,99718.88
2022-12-17T06:00:49.487Z,99726.16
2022-12-17T06:03:36.778Z,99747.47
2022-12-17T06:06:22.207Z,99758.03
2022-12-17T06:09:07.156Z,99766.09
2022-12-17T06:11:52.023Z,99780.41
2022-12-17T06:14:36.892Z,99788.47
2022-12-17T06:17:22.019Z,99798.19
2022-12-17T06:20:08.688Z,99805.25
2022-12-17T06:22:53.476Z,99804.44
2022-12-17T06:25:40.635Z,99811.47
2022-12-17T06:28:25.825Z,99811.47
2022-12-17T06:31:11.505Z,99804.44
2022-12-17T06:33:56.408Z,99822.25
2022-12-17T06:36:42.605Z,99830.94
2022-12-17T06:39:27.783Z,99825.53
2022-12-17T06:42:12.829Z,99822.63
2022-12-17T06:44:57.995Z,99834.25
2022-12-17T06:47:43.166Z,99843.97
2022-12-17T06:50:28.316Z,99852.03
2022-12-17T06:53:19.099Z,99860.13
2022-12-17T06:56:04.211Z,99858.25
2022-12-17T06:58:49.192Z,99877.13
2022-12-17T07:01:34.192Z,99891.41
2022-12-17T07:04:19.461Z,99901.38
2022-12-17T07:07:04.251Z,99896.78
2022-12-17T07:09:50.641Z,99896.78
2022-12-17T07:12:35.566Z,99902.19
2022-12-17T07:18:33.218Z,99915.66
2022-12-17T07:21:18.103Z,99918.34
2022-12-17T07:24:03.153Z,99935.34
2022-12-17T07:26:49.576Z,99936.19
2022-12-17T07:29:34.676Z,99948.59
2022-12-17T07:32:19.659Z,99942.41
2022-12-17T07:35:04.577Z,99954.00
2022-12-17T07:37:49.593Z,99970.16
2022-12-17T07:40:34.537Z,99980.13
2022-12-17T07:43:27.757Z,99990.66
2022-12-17T07:46:12.769Z,99987.97
2022-12-17T07:48:57.868Z,99995.03
2022-12-17T07:51:51.013Z,100012.03
2022-12-17T07:54:36.146Z,100012.84
2022-12-17T07:57:21.368Z,100012.03
2022-12-17T08:00:13.164Z,100029.84
2022-12-17T08:02:58.335Z,100032.31
2022-12-17T08:05:43.794Z,100028.00
2022-12-17T08:08:29.658Z,100041.47
2022-12-17T08:11:15.075Z,100046.00
2022-12-17T08:14:00.413Z,100052.25
2022-12-17T08:16:47.198Z,100051.41
2022-12-17T08:19:32.234Z,100050.56
2022-12-17T08:22:17.328Z,100057.63
2022-12-17T08:25:02.220Z,100063.03
2022-12-17T08:27:47.431Z,100064.66
2022-12-17T08:30:32.871Z,100068.41
2022-12-17T08:33:21.884Z,100088.09
2022-12-17T08:36:10.336Z,100097.00
2022-12-17T08:38:51.851Z,100108.84
2022-12-17T08:41:37.870Z,100118.56
2022-12-17T08:44:34.646Z,100113.19
2022-12-17T08:47:19.851Z,100117.75
2022-12-17T08:50:06.216Z,100118.56
2022-12-17T08:52:51.466Z,100121.06
2022-12-17T08:55:41.547Z,100121.88
2022-12-17T08:58:26.811Z,100126.22
2022-12-17T09:01:12.567Z,100144.25
2022-12-17T09:03:57.819Z,100147.78
2022-12-17T09:06:45.855Z,100148.59
2022-12-17T09:09:30.775Z,100147.78
2022-12-17T09:12:15.782Z,100151.53
2022-12-17T09:15:01.055Z,100150.72
2022-12-17T09:17:46.526Z,100157.13
2022-12-17T09:20:31.888Z,100164.38
2022-12-17T09:23:18.684Z,100160.03
2022-12-17T09:26:10.779Z,100165.44
2022-12-17T09:28:56.255Z,100172.91
2022-12-17T09:31:42.589Z,100179.09
2022-12-17T09:34:27.446Z,100180.97
2022-12-17T09:37:13.196Z,100186.38
2022-12-17T09:39:59.502Z,100197.16
2022-12-17T09:42:51.722Z,100210.63
2022-12-17T09:45:39.428Z,100205.25
2022-12-17T09:48:32.109Z,100196.13
2022-12-17T09:51:17.411Z,100201.91
2022-12-17T09:54:03.961Z,100201.09
2022-12-17T09:56:50.713Z,100194.66
2022-12-17T09:59:37.607Z,100199.84
2022-12-17T10:02:25.150Z,100206.06
2022-12-17T10:05:10.217Z,100210.63
2022-12-17T10:07:55.984Z,100222.22
2022-12-17T10:10:43.259Z,100222.22
2022-12-17T10:13:31.913Z,100225.13
2022-12-17T10:16:35.601Z,100227.22
2022-12-17T10:19:21.189Z,100230.75
2022-12-17T10:22:06.724Z,100228.03
2022-12-17T10:24:52.698Z,100237.16
2022-12-17T10:27:39.868Z,100240.69
2022-12-17T10:30:31.593Z,100247.09
2022-12-17T10:33:16.225Z,100253.31
2022-12-17T10:36:01.247Z,100269.50
2022-12-17T10:38:47.633Z,100269.72
2022-12-17T10:41:42.084Z,100265.16
2022-12-17T10:44:43.503Z,100264.34
2022-12-17T10:47:31.648Z,100263.50
2022-12-17T10:50:16.308Z,100264.34
2022-12-17T10:53:03.061Z,100263.50
2022-12-17T10:55:48.647Z,100274.47
2022-12-17T10:58:49.093Z,100285.25
2022-12-17T11:01:36.907Z,100290.47
2022-12-17T11:04:37.729Z,100293.16
2022-12-17T11:07:22.716Z,100300.00
2022-12-17T11:10:10.109Z,100298.13
2022-12-17T11:12:57.762Z,100308.91
2022-12-17T11:15:43.517Z,100308.91
2022-12-17T11:18:32.252Z,100301.63
2022-12-17T11:21:19.310Z,100303.50
2022-12-17T11:24:05.211Z,100314.28
2022-12-17T11:26:51.469Z,100316.16
2022-12-17T11:29:37.464Z,100327.97
2022-12-17T11:32:29.222Z,100332.53
2022-12-17T11:35:18.990Z,100343.53
2022-12-17T11:38:07.891Z,100340.84
2022-12-17T11:40:54.702Z,100354.31
2022-12-17T11:43:41.287Z,100350.75
2022-12-17T11:46:27.411Z,100343.72
2022-12-17T11:49:15.397Z,100349.31
2022-12-17T11:52:03.055Z,100352.00
2022-12-17T11:54:52.533Z,100357.41
2022-12-17T11:57:39.472Z,100364.66
2022-12-17T12:00:26.606Z,100381.66
2022-12-17T12:03:13.370Z,100379.19
2022-12-17T12:06:01.118Z,100378.13
2022-12-17T12:08:48.192Z,100378.94
2022-12-17T12:11:37.501Z,100382.50
2022-12-17T12:14:24.543Z,100386.84
2022-12-17T12:17:46.532Z,100390.34
2022-12-17T12:20:47.349Z,100396.56
2022-12-17T12:23:36.042Z,100401.13
2022-12-17T12:26:22.577Z,100405.72
2022-12-17T12:29:11.154Z,100417.53
2022-12-17T12:32:04.715Z,100415.03
2022-12-17T12:34:51.571Z,100417.72
2022-12-17T12:37:36.924Z,100418.78
2022-12-17T12:40:24.178Z,100426.84
2022-12-17T12:43:12.825Z,100429.56
2022-12-17T12:46:02.608Z,100437.81
2022-12-17T12:48:53.337Z,100438.66
2022-12-17T12:51:39.248Z,100447.78
2022-12-17T12:54:39.930Z,100452.34
2022-12-17T12:57:39.763Z,100453.16
2022-12-17T13:00:26.619Z,100449.66
2022-12-17T13:03:13.290Z,100456.88
2022-12-17T13:05:40.447Z,100459.56
2022-12-17T13:08:19.812Z,100462.28
2022-12-17T13:10:48.214Z,100460.63
2022-12-17T13:13:22.339Z,100476.78
2022-12-17T13:15:51.140Z,100484.88
2022-12-17T13:18:22.132Z,100484.88
2022-12-17T13:20:57.938Z,100493.78
2022-12-17T13:23:32.967Z,100508.31
2022-12-17T13:26:17.727Z,100507.47
2022-12-17T13:28:50.171Z,100520.94
2022-12-17T13:31:18.263Z,100525.28
2022-12-17T13:33:50.698Z,100528.19
2022-12-17T13:36:19.184Z,100523.00
2022-12-17T13:38:49.793Z,100528.19
2022-12-17T13:41:18.554Z,100532.75
2022-12-17T13:43:46.570Z,100536.47
2022-12-17T13:46:21.526Z,100538.34
2022-12-17T13:48:57.596Z,100540.22
2022-12-17T13:51:26.341Z,100545.59
2022-12-17T13:53:54.931Z,100559.91
2022-12-17T13:56:26.700Z,100559.69
2022-12-17T13:58:54.578Z,100559.91
2022-12-17T14:01:23.096Z,100562.59
2022-12-17T14:04:05.761Z,100561.78
2022-12-17T14:06:37.077Z,100567.16
2022-12-17T14:09:04.850Z,100571.50
2022-12-17T14:11:51.531Z,100577.53
2022-12-17T14:14:21.385Z,100582.94
2022-12-17T14:17:08.211Z,100584.56
2022-12-17T14:19:35.897Z,100591.84
2022-12-17T14:22:04.918Z,100592.66
2022-12-17T14:24:33.264Z,100591.63
2022-12-17T14:27:01.333Z,100596.19
2022-12-17T14:29:30.088Z,100594.53
2022-12-17T14:32:22.744Z,100596.19
2022-12-17T14:34:57.248Z,100600.75
2022-12-17T14:37:30.759Z,100604.25
2022-12-17T14:40:01.100Z,100608.81
2022-12-17T14:42:30.369Z,100608.00
2022-12-17T14:44:59.050Z,100622.31
2022-12-17T14:47:28.325Z,100619.19
2022-12-17T14:49:57.290Z,100629.75
2022-12-17T14:52:32.918Z,100637.81
2022-12-17T14:55:00.573Z,100638.03
2022-12-17T14:57:29.569Z,100639.91
2022-12-17T14:59:57.252Z,100644.25
2022-12-17T15:02:27.164Z,100648.00
2022-12-17T15:04:55.350Z,100651.72
2022-12-17T15:07:25.022Z,100655.44
2022-12-17T15:09:54.335Z,100651.72
2022-12-17T15:12:22.689Z,100662.69
2022-12-17T15:14:50.376Z,100660.84
2022-12-17T15:17:18.944Z,100658.97
2022-12-17T15:19:50.180Z,100660.84
2022-12-17T15:22:22.558Z,100673.47
2022-12-17T15:24:50.195Z,100671.63
2022-12-17T15:27:19.879Z,100682.38
2022-12-17T15:29:47.536Z,100689.44
2022-12-17T15:32:18.675Z,100690.25
2022-12-17T15:34:46.994Z,100693.81
2022-12-17T15:37:15.246Z,100697.31
2022-12-17T15:39:42.937Z,100697.31
2022-12-17T15:42:29.482Z,100699.81
2022-12-17T15:44:58.434Z,100714.31
2022-12-17T15:47:26.818Z,100708.94
2022-12-17T15:49:54.422Z,100713.50
2022-12-17T15:52:22.285Z,100727.16
2022-12-17T15:54:51.099Z,100735.22
2022-12-17T15:57:19.020Z,100736.91
2022-12-17T15:59:47.438Z,100747.06
2022-12-17T16:02:46.970Z,100751.63
2022-12-17T16:05:16.514Z,100751.63
2022-12-17T16:07:44.463Z,100753.47
2022-12-17T16:10:12.870Z,100764.22
2022-12-17T16:12:40.499Z,100759.88
2022-12-17T16:15:10.448Z,100766.09
2022-12-17T16:17:38.114Z,100768.78
2022-12-17T16:20:07.387Z,100781.44
2022-12-17T16:22:36.405Z,100781.44
2022-12-17T16:25:05.655Z,100792.22
2022-12-17T16:27:33.321Z,100792.22
2022-12-17T16:30:01.781Z,100788.47
2022-12-17T16:32:36.043Z,100794.09
2022-12-17T16:35:06.663Z,100801.13
2022-12-17T16:37:36.933Z,100800.31
2022-12-17T16:40:05.640Z,100812.72
2022-12-17T16:42:33.331Z,100793.88
2022-12-17T16:45:01.795Z,100810.91
2022-12-17T16:47:29.376Z,100810.91
2022-12-17T16:49:58.376Z,100811.72
2022-12-17T16:52:26.057Z,100820.63
2022-12-17T16:54:55.796Z,100824.16
2022-12-17T16:57:23.417Z,100821.69
2022-12-17T16:59:51.777Z,100825.19
2022-12-17T17:02:19.763Z,100842.38
2022-12-17T17:04:48.262Z,100841.53
2022-12-17T17:07:15.924Z,100853.16
2022-12-17T17:09:44.732Z,100863.94
2022-12-17T17:12:13.780Z,100850.66
2022-12-17T17:14:46.468Z,100856.06
2022-12-17T17:17:14.062Z,100866.84
2022-12-17T17:19:41.674Z,100860.63
2022-12-17T17:22:10.058Z,100874.09
2022-12-17T17:24:37.709Z,100880.50
2022-12-17T17:27:06.469Z,100880.50
2022-12-17T17:29:35.568Z,100877.78
2022-12-17T17:32:12.984Z,100882.19
2022-12-17T17:34:42.004Z,100880.50
2022-12-17T17:37:10.384Z,100884.88
2022-12-17T17:39:38.032Z,100885.06
2022-12-17T17:42:06.477Z,100893.97
2022-12-17T17:44:35.486Z,100904.75
2022-12-17T17:47:03.968Z,100915.50
2022-12-17T17:49:31.699Z,100917.22
2022-12-17T17:52:09.375Z,100909.13
2022-12-17T17:54:38.297Z,100915.34
2022-12-17T17:57:06.693Z,100918.88
2022-12-17T17:59:35.751Z,100924.25
2022-12-17T18:02:04.280Z,100920.72
2022-12-17T18:04:32.043Z,100935.03
2022-12-17T18:09:49.306Z,100926.94
2022-12-17T18:12:32.500Z,100942.47
2022-12-17T18:15:18.392Z,100947.66
2022-12-17T18:17:47.354Z,100951.38
2022-12-17T18:20:15.055Z,100946.84
2022-12-17T18:22:43.464Z,100943.50
2022-12-17T18:25:11.086Z,100945.97
2022-12-17T18:27:39.486Z,100950.75
2022-12-17T18:30:09.232Z,100959.66
2022-12-17T18:32:52.553Z,100967.75
2022-12-17T18:35:20.913Z,100963.38
2022-12-17T18:37:49.251Z,100974.16
2022-12-17T18:40:16.944Z,100968.75
2022-12-17T18:43:02.652Z,100974.16
2022-12-17T18:45:31.644Z,100981.22
2022-12-17T18:48:00.467Z,100984.94
2022-12-17T18:50:28.084Z,100988.66
2022-12-17T18:52:56.364Z,100983.28
2022-12-17T18:55:24.072Z,100988.66
2022-12-17T18:57:52.465Z,100998.41
2022-12-17T19:00:20.229Z,101005.47
2022-12-17T19:02:51.887Z,101010.88
2022-12-17T19:05:19.707Z,101016.03
2022-12-17T19:07:47.403Z,101023.94
2022-12-17T19:10:15.772Z,101025.59
2022-12-17T19:12:43.352Z,101035.56
2022-12-17T19:15:12.065Z,101035.38
2022-12-17T19:17:39.683Z,101051.53
2022-12-17T19:20:11.537Z,101049.69
2022-12-17T19:22:39.126Z,101048.66
2022-12-17T19:25:07.636Z,101046.81
2022-12-17T19:27:35.255Z,101053.03
2022-12-17T19:30:03.656Z,101061.28
2022-12-17T19:32:32.252Z,101066.50
2022-12-17T19:35:05.585Z,101060.28
2022-12-17T19:37:34.698Z,101069.19
2022-12-17T19:40:03.600Z,101070.03
2022-12-17T19:42:37.148Z,101069.00
2022-12-17T19:45:06.614Z,101082.47
2022-12-17T19:47:34.247Z,101078.75
2022-12-17T19:50:02.609Z,101085.16
2022-12-17T19:52:30.291Z,101084.16
2022-12-17T19:55:00.183Z,101089.53
2022-12-17T19:57:27.913Z,101082.28
2022-12-17T19:59:56.285Z,101081.47
2022-12-17T20:02:28.329Z,101088.50
2022-12-17T20:04:59.814Z,101084.16
2022-12-17T20:07:27.434Z,101091.19
2022-12-17T20:09:55.745Z,101103.63
2022-12-17T20:12:24.846Z,101102.63
2022-12-17T20:14:53.306Z,101104.50
2022-12-17T20:17:21.423Z,101102.63
2022-12-17T20:19:50.610Z,101113.41
2022-12-17T20:22:18.335Z,101107.00
2022-12-17T20:24:48.589Z,101122.97
2022-12-17T20:27:17.417Z,101124.84
2022-12-17T20:29:46.448Z,101122.16
2022-12-17T20:32:15.041Z,101128.38
2022-12-17T20:34:43.511Z,101128.38
2022-12-17T20:37:11.837Z,101131.91
2022-12-17T20:39:39.473Z,101130.25
2022-12-17T20:42:08.093Z,101135.63
2022-12-17T20:44:35.736Z,101147.25
2022-12-17T20:47:05.509Z,101145.56
2022-12-17T20:49:33.243Z,101149.94
2022-12-17T20:52:02.703Z,101147.25
2022-12-17T20:54:30.415Z,101146.41
2022-12-17T20:56:58.811Z,101150.78
2022-12-17T20:59:26.525Z,101160.50
2022-12-17T21:01:56.442Z,101164.25
2022-12-17T21:04:25.979Z,101174.19
2022-12-17T21:06:54.515Z,101180.41
2022-12-17T21:09:25.424Z,101184.97
2022-12-17T21:11:53.974Z,101191.19
2022-12-17T21:14:21.666Z,101193.91
2022-12-17T21:16:50.102Z,101198.25
2022-12-17T21:19:21.942Z,101203.63
2022-12-17T21:21:51.691Z,101199.28
2022-12-17T21:24:19.322Z,101198.25
2022-12-17T21:26:47.791Z,101202.63
2022-12-17T21:29:15.666Z,101207.00
2022-12-17T21:31:44.839Z,101207.00
2022-12-17T21:34:13.600Z,101207.00
2022-12-17T21:36:41.253Z,101208.69
2022-12-17T21:39:10.944Z,101219.47
2022-12-17T21:41:39.321Z,101218.44
2022-12-17T21:44:12.748Z,101219.47
2022-12-17T21:46:41.301Z,101215.91
2022-12-17T21:49:09.706Z,101222.16
2022-12-17T21:51:37.567Z,101222.34
2022-12-17T21:54:09.035Z,101229.38
2022-12-17T21:56:39.032Z,101225.84
2022-12-17T21:59:07.411Z,101230.25
2022-12-17T22:01:35.140Z,101229.38
2022-12-17T22:04:04.567Z,101239.34
2022-12-17T22:06:38.931Z,101237.69
2022-12-17T22:09:17.781Z,101235.97
2022-12-17T22:12:16.715Z,101245.94
2022-12-17T22:14:45.249Z,101243.44
2022-12-17T22:17:12.893Z,101248.84
2022-12-17T22:19:41.345Z,101248.84
2022-12-17T22:22:08.967Z,101253.38
2022-12-17T22:24:37.407Z,101260.63
2022-12-17T22:27:08.971Z,101261.66
2022-12-17T22:29:55.373Z,101261.66
2022-12-17T22:32:39.564Z,101261.66
2022-12-17T22:36:04.163Z,101266.84
2022-12-17T22:40:42.297Z,101262.47
2022-12-17T22:44:31.889Z,101264.16
2022-12-17T22:44:43.046Z,101267.03
2022-12-17T22:46:22.746Z,101273.09
2022-12-17T22:48:50.458Z,101273.25
2022-12-17T22:51:24.069Z,101284.22
2022-12-17T22:54:00.915Z,101293.16
2022-12-17T22:57:02.899Z,101293.16
2022-12-17T22:59:19.026Z,101301.41
2022-12-17T23:01:47.462Z,101297.91
2022-12-17T23:04:15.905Z,101291.69
2022-12-17T23:06:45.687Z,101293.72
2022-12-17T23:09:13.327Z,101303.47
2022-12-17T23:11:41.204Z,101302.47
2022-12-17T23:14:08.918Z,101304.50
2022-12-17T23:16:38.032Z,101305.53
2022-12-17T23:19:06.336Z,101314.44
2022-12-17T23:21:34.125Z,101308.22
2022-12-17T23:24:01.826Z,101313.59
2022-12-17T23:26:30.213Z,101314.59
2022-12-17T23:28:58.595Z,101320.00
2022-12-17T23:31:26.747Z,101325.38
2022-12-17T23:33:55.837Z,101326.41
2022-12-17T23:36:24.163Z,101334.50
2022-12-17T23:38:51.956Z,101323.72
2022-12-17T23:41:20.271Z,101332.47
2022-12-17T23:43:48.070Z,101337.88
2022-12-17T23:46:15.847Z,101332.47
2022-12-17T23:48:58.107Z,101332.47
2022-12-17T23:51:26.072Z,101332.47
2022-12-17T23:53:53.802Z,101328.75
2022-12-17T23:56:22.126Z,101328.75
2022-12-17T23:58:49.887Z,101339.53
